sensor_id;sensor_type;location;lat;lon;timestamp;P1;durP1;ratioP1;P2;durP2;ratioP2
42296;SDS011;28985;47.456;19.016;2022-07-09T00:01:00;17.10;;;16.20;;
42296;SDS011;28985;47.456;19.016;2022-07-09T00:03:27;19.00;;;18.30;;
42296;SDS011;28985;47.456;19.016;2022-07-09T00:05:54;14.82;;;14.32;;
42296;SDS011;28985;47.456;19.016;2022-07-09T00:08:20;15.10;;;14.45;;
42296;SDS011;28985;47.456;19.016;2022-07-09T00:10:47;13.85;;;13.25;;
42296;SDS011;28985;47.456;19.016;2022-07-09T00:13:14;17.23;;;16.25;;
42296;SDS011;28985;47.456;19.016;2022-07-09T00:15:40;13.88;;;12.80;;
42296;SDS011;28985;47.456;19.016;2022-07-09T00:18:07;13.45;;;12.30;;
42296;SDS011;28985;47.456;19.016;2022-07-09T00:20:33;15.18;;;14.23;;
42296;SDS011;28985;47.456;19.016;2022-07-09T00:23:00;15.00;;;14.35;;
42296;SDS011;28985;47.456;19.016;2022-07-09T00:25:26;12.30;;;11.68;;
42296;SDS011;28985;47.456;19.016;2022-07-09T00:27:53;16.00;;;15.15;;
42296;SDS011;28985;47.456;19.016;2022-07-09T00:30:19;13.70;;;13.00;;
42296;SDS011;28985;47.456;19.016;2022-07-09T00:32:46;13.55;;;12.82;;
42296;SDS011;28985;47.456;19.016;2022-07-09T00:35:13;12.90;;;12.15;;
42296;SDS011;28985;47.456;19.016;2022-07-09T00:37:39;15.73;;;14.75;;
42296;SDS011;28985;47.456;19.016;2022-07-09T00:40:06;13.73;;;13.13;;
42296;SDS011;28985;47.456;19.016;2022-07-09T00:42:33;14.38;;;13.65;;
42296;SDS011;28985;47.456;19.016;2022-07-09T00:44:59;15.52;;;14.73;;
42296;SDS011;28985;47.456;19.016;2022-07-09T00:47:26;15.05;;;14.13;;
42296;SDS011;28985;47.456;19.016;2022-07-09T00:49:53;16.33;;;15.43;;
42296;SDS011;28985;47.456;19.016;2022-07-09T00:52:20;12.93;;;12.05;;
42296;SDS011;28985;47.456;19.016;2022-07-09T00:54:47;14.82;;;14.02;;
42296;SDS011;28985;47.456;19.016;2022-07-09T00:57:14;15.63;;;14.88;;
42296;SDS011;28985;47.456;19.016;2022-07-09T00:59:42;16.42;;;15.80;;
42296;SDS011;28985;47.456;19.016;2022-07-09T01:02:09;13.85;;;13.15;;
42296;SDS011;28985;47.456;19.016;2022-07-09T01:04:35;16.25;;;15.50;;
42296;SDS011;28985;47.456;19.016;2022-07-09T01:07:03;15.32;;;14.63;;
42296;SDS011;28985;47.456;19.016;2022-07-09T01:09:30;17.38;;;16.45;;
42296;SDS011;28985;47.456;19.016;2022-07-09T01:11:57;15.30;;;14.38;;
42296;SDS011;28985;47.456;19.016;2022-07-09T01:14:24;14.52;;;13.70;;
42296;SDS011;28985;47.456;19.016;2022-07-09T01:17:01;13.55;;;13.05;;
42296;SDS011;28985;47.456;19.016;2022-07-09T01:19:30;11.90;;;11.02;;
42296;SDS011;28985;47.456;19.016;2022-07-09T01:21:58;13.73;;;12.95;;
42296;SDS011;28985;47.456;19.016;2022-07-09T01:24:31;18.00;;;17.23;;
42296;SDS011;28985;47.456;19.016;2022-07-09T01:26:58;19.67;;;18.88;;
42296;SDS011;28985;47.456;19.016;2022-07-09T01:29:24;14.25;;;13.48;;
42296;SDS011;28985;47.456;19.016;2022-07-09T01:31:51;19.95;;;18.52;;
42296;SDS011;28985;47.456;19.016;2022-07-09T01:34:17;17.58;;;16.58;;
42296;SDS011;28985;47.456;19.016;2022-07-09T01:36:44;18.13;;;17.33;;
42296;SDS011;28985;47.456;19.016;2022-07-09T01:39:11;16.35;;;15.63;;
42296;SDS011;28985;47.456;19.016;2022-07-09T01:41:37;16.98;;;16.27;;
42296;SDS011;28985;47.456;19.016;2022-07-09T01:44:04;19.85;;;18.85;;
42296;SDS011;28985;47.456;19.016;2022-07-09T01:46:30;18.00;;;17.30;;
42296;SDS011;28985;47.456;19.016;2022-07-09T01:48:57;19.55;;;18.75;;
42296;SDS011;28985;47.456;19.016;2022-07-09T01:51:23;19.23;;;18.35;;
42296;SDS011;28985;47.456;19.016;2022-07-09T01:53:50;18.98;;;18.17;;
42296;SDS011;28985;47.456;19.016;2022-07-09T01:56:17;18.00;;;17.27;;
42296;SDS011;28985;47.456;19.016;2022-07-09T01:58:43;19.45;;;18.23;;
42296;SDS011;28985;47.456;19.016;2022-07-09T02:01:10;22.10;;;21.10;;
42296;SDS011;28985;47.456;19.016;2022-07-09T02:03:37;20.23;;;19.25;;
42296;SDS011;28985;47.456;19.016;2022-07-09T02:06:04;20.00;;;19.20;;
42296;SDS011;28985;47.456;19.016;2022-07-09T02:08:31;19.40;;;18.50;;
42296;SDS011;28985;47.456;19.016;2022-07-09T02:10:58;21.83;;;20.63;;
42296;SDS011;28985;47.456;19.016;2022-07-09T02:13:24;21.52;;;20.52;;
42296;SDS011;28985;47.456;19.016;2022-07-09T02:15:51;19.98;;;19.15;;
42296;SDS011;28985;47.456;19.016;2022-07-09T02:18:18;21.88;;;20.88;;
42296;SDS011;28985;47.456;19.016;2022-07-09T02:20:45;17.88;;;16.92;;
42296;SDS011;28985;47.456;19.016;2022-07-09T02:23:11;17.33;;;16.35;;
42296;SDS011;28985;47.456;19.016;2022-07-09T02:25:38;18.40;;;17.30;;
42296;SDS011;28985;47.456;19.016;2022-07-09T02:28:04;16.63;;;15.93;;
42296;SDS011;28985;47.456;19.016;2022-07-09T02:30:32;21.73;;;20.30;;
42296;SDS011;28985;47.456;19.016;2022-07-09T02:32:59;28.88;;;26.90;;
42296;SDS011;28985;47.456;19.016;2022-07-09T02:35:25;10.07;;;9.50;;
42296;SDS011;28985;47.456;19.016;2022-07-09T02:37:52;8.90;;;8.30;;
42296;SDS011;28985;47.456;19.016;2022-07-09T02:40:18;10.57;;;9.88;;
42296;SDS011;28985;47.456;19.016;2022-07-09T02:42:45;8.48;;;7.97;;
42296;SDS011;28985;47.456;19.016;2022-07-09T02:45:11;7.88;;;7.20;;
42296;SDS011;28985;47.456;19.016;2022-07-09T02:47:39;6.22;;;5.82;;
42296;SDS011;28985;47.456;19.016;2022-07-09T02:50:06;5.68;;;5.38;;
42296;SDS011;28985;47.456;19.016;2022-07-09T02:52:33;17.02;;;12.45;;
42296;SDS011;28985;47.456;19.016;2022-07-09T02:54:59;7.00;;;4.47;;
42296;SDS011;28985;47.456;19.016;2022-07-09T02:57:26;4.05;;;3.50;;
42296;SDS011;28985;47.456;19.016;2022-07-09T02:59:52;5.22;;;3.40;;
42296;SDS011;28985;47.456;19.016;2022-07-09T03:02:19;4.05;;;3.85;;
42296;SDS011;28985;47.456;19.016;2022-07-09T03:04:45;5.90;;;5.40;;
42296;SDS011;28985;47.456;19.016;2022-07-09T03:07:12;4.07;;;3.30;;
42296;SDS011;28985;47.456;19.016;2022-07-09T03:09:40;5.00;;;3.28;;
42296;SDS011;28985;47.456;19.016;2022-07-09T03:12:07;5.22;;;3.70;;
42296;SDS011;28985;47.456;19.016;2022-07-09T03:14:33;4.47;;;3.10;;
42296;SDS011;28985;47.456;19.016;2022-07-09T03:17:00;2.50;;;2.35;;
42296;SDS011;28985;47.456;19.016;2022-07-09T03:19:27;3.10;;;2.53;;
42296;SDS011;28985;47.456;19.016;2022-07-09T03:21:53;4.18;;;3.78;;
42296;SDS011;28985;47.456;19.016;2022-07-09T03:24:20;2.95;;;2.75;;
42296;SDS011;28985;47.456;19.016;2022-07-09T03:26:46;3.40;;;2.63;;
42296;SDS011;28985;47.456;19.016;2022-07-09T03:29:13;2.80;;;2.60;;
42296;SDS011;28985;47.456;19.016;2022-07-09T03:31:40;4.80;;;2.72;;
42296;SDS011;28985;47.456;19.016;2022-07-09T03:34:06;3.15;;;2.95;;
42296;SDS011;28985;47.456;19.016;2022-07-09T03:36:33;3.55;;;2.80;;
42296;SDS011;28985;47.456;19.016;2022-07-09T03:39:00;3.15;;;2.80;;
42296;SDS011;28985;47.456;19.016;2022-07-09T03:41:27;6.90;;;2.70;;
42296;SDS011;28985;47.456;19.016;2022-07-09T03:43:54;5.18;;;2.85;;
42296;SDS011;28985;47.456;19.016;2022-07-09T03:46:20;3.25;;;2.60;;
42296;SDS011;28985;47.456;19.016;2022-07-09T03:48:47;9.15;;;3.28;;
42296;SDS011;28985;47.456;19.016;2022-07-09T03:51:15;4.38;;;3.17;;
42296;SDS011;28985;47.456;19.016;2022-07-09T03:53:42;2.97;;;2.78;;
42296;SDS011;28985;47.456;19.016;2022-07-09T03:56:08;3.30;;;3.00;;
42296;SDS011;28985;47.456;19.016;2022-07-09T03:58:35;4.78;;;3.38;;
42296;SDS011;28985;47.456;19.016;2022-07-09T04:01:04;5.72;;;3.40;;
42296;SDS011;28985;47.456;19.016;2022-07-09T04:03:30;6.93;;;3.67;;
42296;SDS011;28985;47.456;19.016;2022-07-09T04:05:57;3.85;;;3.50;;
42296;SDS011;28985;47.456;19.016;2022-07-09T04:08:24;5.38;;;4.43;;
42296;SDS011;28985;47.456;19.016;2022-07-09T04:10:50;4.70;;;4.30;;
42296;SDS011;28985;47.456;19.016;2022-07-09T04:13:17;4.03;;;3.70;;
42296;SDS011;28985;47.456;19.016;2022-07-09T04:15:44;6.35;;;4.30;;
42296;SDS011;28985;47.456;19.016;2022-07-09T04:18:13;5.43;;;4.57;;
42296;SDS011;28985;47.456;19.016;2022-07-09T04:20:40;10.13;;;5.45;;
42296;SDS011;28985;47.456;19.016;2022-07-09T04:23:08;5.07;;;4.68;;
42296;SDS011;28985;47.456;19.016;2022-07-09T04:25:34;6.88;;;4.00;;
42296;SDS011;28985;47.456;19.016;2022-07-09T04:28:01;8.80;;;3.80;;
42296;SDS011;28985;47.456;19.016;2022-07-09T04:30:28;10.05;;;4.70;;
42296;SDS011;28985;47.456;19.016;2022-07-09T04:32:55;8.75;;;5.63;;
42296;SDS011;28985;47.456;19.016;2022-07-09T04:35:21;7.35;;;4.80;;
42296;SDS011;28985;47.456;19.016;2022-07-09T04:37:48;10.60;;;5.72;;
42296;SDS011;28985;47.456;19.016;2022-07-09T04:40:14;30.27;;;7.50;;
42296;SDS011;28985;47.456;19.016;2022-07-09T04:42:41;17.67;;;5.88;;
42296;SDS011;28985;47.456;19.016;2022-07-09T04:45:08;5.10;;;4.57;;
42296;SDS011;28985;47.456;19.016;2022-07-09T04:47:35;9.52;;;4.50;;
42296;SDS011;28985;47.456;19.016;2022-07-09T04:50:01;8.80;;;4.30;;
42296;SDS011;28985;47.456;19.016;2022-07-09T04:52:28;4.35;;;3.83;;
42296;SDS011;28985;47.456;19.016;2022-07-09T04:54:55;3.90;;;3.22;;
42296;SDS011;28985;47.456;19.016;2022-07-09T04:57:22;6.40;;;3.35;;
42296;SDS011;28985;47.456;19.016;2022-07-09T04:59:49;3.55;;;3.35;;
42296;SDS011;28985;47.456;19.016;2022-07-09T05:02:15;5.95;;;3.88;;
42296;SDS011;28985;47.456;19.016;2022-07-09T05:04:42;5.78;;;3.78;;
42296;SDS011;28985;47.456;19.016;2022-07-09T05:07:08;5.30;;;3.80;;
42296;SDS011;28985;47.456;19.016;2022-07-09T05:09:35;5.85;;;3.80;;
42296;SDS011;28985;47.456;19.016;2022-07-09T05:12:01;3.65;;;2.33;;
42296;SDS011;28985;47.456;19.016;2022-07-09T05:14:28;4.28;;;3.88;;
42296;SDS011;28985;47.456;19.016;2022-07-09T05:16:55;5.35;;;3.90;;
42296;SDS011;28985;47.456;19.016;2022-07-09T05:19:21;5.47;;;3.60;;
42296;SDS011;28985;47.456;19.016;2022-07-09T05:21:48;7.20;;;2.63;;
42296;SDS011;28985;47.456;19.016;2022-07-09T05:24:15;3.35;;;3.10;;
42296;SDS011;28985;47.456;19.016;2022-07-09T05:26:41;3.90;;;3.60;;
42296;SDS011;28985;47.456;19.016;2022-07-09T05:29:08;6.20;;;2.13;;
42296;SDS011;28985;47.456;19.016;2022-07-09T05:31:34;2.13;;;2.03;;
42296;SDS011;28985;47.456;19.016;2022-07-09T05:34:01;4.32;;;3.03;;
42296;SDS011;28985;47.456;19.016;2022-07-09T05:36:29;7.05;;;3.78;;
42296;SDS011;28985;47.456;19.016;2022-07-09T05:38:56;4.35;;;3.80;;
42296;SDS011;28985;47.456;19.016;2022-07-09T05:41:23;3.80;;;3.50;;
42296;SDS011;28985;47.456;19.016;2022-07-09T05:43:51;4.35;;;3.92;;
42296;SDS011;28985;47.456;19.016;2022-07-09T05:46:18;4.95;;;4.50;;
42296;SDS011;28985;47.456;19.016;2022-07-09T05:48:44;4.43;;;4.13;;
42296;SDS011;28985;47.456;19.016;2022-07-09T05:51:12;5.68;;;3.10;;
42296;SDS011;28985;47.456;19.016;2022-07-09T05:53:38;4.20;;;3.90;;
42296;SDS011;28985;47.456;19.016;2022-07-09T05:56:05;5.63;;;4.43;;
42296;SDS011;28985;47.456;19.016;2022-07-09T05:58:32;7.72;;;4.82;;
42296;SDS011;28985;47.456;19.016;2022-07-09T06:00:59;8.40;;;6.57;;
42296;SDS011;28985;47.456;19.016;2022-07-09T06:03:26;5.25;;;4.88;;
42296;SDS011;28985;47.456;19.016;2022-07-09T06:05:52;4.50;;;4.10;;
42296;SDS011;28985;47.456;19.016;2022-07-09T06:08:19;4.47;;;4.18;;
42296;SDS011;28985;47.456;19.016;2022-07-09T06:10:46;4.00;;;3.75;;
42296;SDS011;28985;47.456;19.016;2022-07-09T06:13:12;6.28;;;4.45;;
42296;SDS011;28985;47.456;19.016;2022-07-09T06:15:39;4.82;;;4.53;;
42296;SDS011;28985;47.456;19.016;2022-07-09T06:18:05;6.20;;;5.80;;
42296;SDS011;28985;47.456;19.016;2022-07-09T06:20:32;7.55;;;7.05;;
42296;SDS011;28985;47.456;19.016;2022-07-09T06:23:05;6.82;;;6.53;;
42296;SDS011;28985;47.456;19.016;2022-07-09T06:25:32;8.18;;;7.57;;
42296;SDS011;28985;47.456;19.016;2022-07-09T06:27:58;11.25;;;10.65;;
42296;SDS011;28985;47.456;19.016;2022-07-09T06:30:25;12.07;;;11.35;;
42296;SDS011;28985;47.456;19.016;2022-07-09T06:32:52;11.90;;;11.30;;
42296;SDS011;28985;47.456;19.016;2022-07-09T06:35:18;12.35;;;11.57;;
42296;SDS011;28985;47.456;19.016;2022-07-09T06:37:45;12.40;;;11.68;;
42296;SDS011;28985;47.456;19.016;2022-07-09T06:40:12;15.63;;;14.93;;
42296;SDS011;28985;47.456;19.016;2022-07-09T06:42:42;12.23;;;11.43;;
42296;SDS011;28985;47.456;19.016;2022-07-09T06:45:08;10.55;;;9.93;;
42296;SDS011;28985;47.456;19.016;2022-07-09T06:47:35;16.63;;;15.93;;
42296;SDS011;28985;47.456;19.016;2022-07-09T06:50:09;13.00;;;12.43;;
42296;SDS011;28985;47.456;19.016;2022-07-09T06:52:35;17.95;;;17.05;;
42296;SDS011;28985;47.456;19.016;2022-07-09T06:55:02;18.17;;;17.55;;
42296;SDS011;28985;47.456;19.016;2022-07-09T06:57:29;12.68;;;12.07;;
42296;SDS011;28985;47.456;19.016;2022-07-09T06:59:57;15.45;;;14.65;;
42296;SDS011;28985;47.456;19.016;2022-07-09T07:02:23;15.93;;;15.23;;
42296;SDS011;28985;47.456;19.016;2022-07-09T07:04:50;17.20;;;16.30;;
42296;SDS011;28985;47.456;19.016;2022-07-09T07:07:16;18.10;;;17.30;;
42296;SDS011;28985;47.456;19.016;2022-07-09T07:09:43;15.77;;;14.85;;
42296;SDS011;28985;47.456;19.016;2022-07-09T07:12:09;23.33;;;22.30;;
42296;SDS011;28985;47.456;19.016;2022-07-09T07:14:36;19.08;;;18.08;;
42296;SDS011;28985;47.456;19.016;2022-07-09T07:17:02;11.73;;;10.85;;
42296;SDS011;28985;47.456;19.016;2022-07-09T07:19:30;15.43;;;14.65;;
42296;SDS011;28985;47.456;19.016;2022-07-09T07:21:56;18.02;;;17.25;;
42296;SDS011;28985;47.456;19.016;2022-07-09T07:24:23;14.80;;;14.07;;
42296;SDS011;28985;47.456;19.016;2022-07-09T07:26:49;14.77;;;13.82;;
42296;SDS011;28985;47.456;19.016;2022-07-09T07:29:16;13.70;;;13.20;;
42296;SDS011;28985;47.456;19.016;2022-07-09T07:31:42;17.50;;;16.27;;
42296;SDS011;28985;47.456;19.016;2022-07-09T07:34:09;13.75;;;13.15;;
42296;SDS011;28985;47.456;19.016;2022-07-09T07:36:36;9.77;;;9.27;;
42296;SDS011;28985;47.456;19.016;2022-07-09T07:39:02;17.33;;;16.35;;
42296;SDS011;28985;47.456;19.016;2022-07-09T07:41:29;12.23;;;11.60;;
42296;SDS011;28985;47.456;19.016;2022-07-09T07:43:56;22.20;;;21.33;;
42296;SDS011;28985;47.456;19.016;2022-07-09T07:46:23;11.07;;;10.35;;
42296;SDS011;28985;47.456;19.016;2022-07-09T07:48:49;13.10;;;12.60;;
42296;SDS011;28985;47.456;19.016;2022-07-09T07:51:16;12.35;;;11.43;;
42296;SDS011;28985;47.456;19.016;2022-07-09T07:53:43;16.73;;;15.82;;
42296;SDS011;28985;47.456;19.016;2022-07-09T07:56:10;14.32;;;13.63;;
42296;SDS011;28985;47.456;19.016;2022-07-09T07:58:36;16.63;;;15.75;;
42296;SDS011;28985;47.456;19.016;2022-07-09T08:01:03;17.23;;;16.52;;
42296;SDS011;28985;47.456;19.016;2022-07-09T08:03:30;21.48;;;20.27;;
42296;SDS011;28985;47.456;19.016;2022-07-09T08:05:59;11.65;;;11.15;;
42296;SDS011;28985;47.456;19.016;2022-07-09T08:08:26;16.48;;;15.68;;
42296;SDS011;28985;47.456;19.016;2022-07-09T08:10:53;15.55;;;14.85;;
42296;SDS011;28985;47.456;19.016;2022-07-09T08:13:20;17.48;;;16.60;;
42296;SDS011;28985;47.456;19.016;2022-07-09T08:15:47;10.80;;;10.00;;
42296;SDS011;28985;47.456;19.016;2022-07-09T08:18:14;20.13;;;19.30;;
42296;SDS011;28985;47.456;19.016;2022-07-09T08:20:41;9.55;;;9.00;;
42296;SDS011;28985;47.456;19.016;2022-07-09T08:23:08;15.90;;;15.05;;
42296;SDS011;28985;47.456;19.016;2022-07-09T08:25:35;12.63;;;12.13;;
42296;SDS011;28985;47.456;19.016;2022-07-09T08:28:03;14.52;;;13.52;;
42296;SDS011;28985;47.456;19.016;2022-07-09T08:30:29;16.80;;;15.80;;
42296;SDS011;28985;47.456;19.016;2022-07-09T08:32:56;17.08;;;16.27;;
42296;SDS011;28985;47.456;19.016;2022-07-09T08:35:23;8.70;;;8.30;;
42296;SDS011;28985;47.456;19.016;2022-07-09T08:37:52;10.07;;;9.57;;
42296;SDS011;28985;47.456;19.016;2022-07-09T08:40:19;8.15;;;7.65;;
42296;SDS011;28985;47.456;19.016;2022-07-09T08:42:47;24.40;;;23.40;;
42296;SDS011;28985;47.456;19.016;2022-07-09T08:45:16;17.58;;;16.58;;
42296;SDS011;28985;47.456;19.016;2022-07-09T08:47:43;13.77;;;13.00;;
42296;SDS011;28985;47.456;19.016;2022-07-09T08:50:10;14.40;;;13.70;;
42296;SDS011;28985;47.456;19.016;2022-07-09T08:52:38;18.33;;;17.30;;
42296;SDS011;28985;47.456;19.016;2022-07-09T08:55:06;15.25;;;14.15;;
42296;SDS011;28985;47.456;19.016;2022-07-09T08:57:35;18.65;;;17.75;;
42296;SDS011;28985;47.456;19.016;2022-07-09T09:00:03;24.63;;;23.45;;
42296;SDS011;28985;47.456;19.016;2022-07-09T09:02:35;18.17;;;17.35;;
42296;SDS011;28985;47.456;19.016;2022-07-09T09:05:09;21.30;;;20.15;;
42296;SDS011;28985;47.456;19.016;2022-07-09T09:07:39;22.05;;;20.85;;
42296;SDS011;28985;47.456;19.016;2022-07-09T09:10:07;28.02;;;26.90;;
42296;SDS011;28985;47.456;19.016;2022-07-09T09:12:34;29.55;;;28.35;;
42296;SDS011;28985;47.456;19.016;2022-07-09T09:15:04;27.52;;;26.20;;
42296;SDS011;28985;47.456;19.016;2022-07-09T09:17:32;35.85;;;34.42;;
42296;SDS011;28985;47.456;19.016;2022-07-09T09:19:58;32.90;;;31.42;;
42296;SDS011;28985;47.456;19.016;2022-07-09T09:22:25;31.85;;;30.65;;
42296;SDS011;28985;47.456;19.016;2022-07-09T09:24:51;32.40;;;31.10;;
42296;SDS011;28985;47.456;19.016;2022-07-09T09:27:27;27.10;;;26.10;;
42296;SDS011;28985;47.456;19.016;2022-07-09T09:29:54;26.77;;;25.73;;
42296;SDS011;28985;47.456;19.016;2022-07-09T09:32:24;28.92;;;27.83;;
42296;SDS011;28985;47.456;19.016;2022-07-09T09:34:51;27.52;;;26.33;;
42296;SDS011;28985;47.456;19.016;2022-07-09T09:37:27;29.35;;;28.13;;
42296;SDS011;28985;47.456;19.016;2022-07-09T09:39:57;34.13;;;32.55;;
42296;SDS011;28985;47.456;19.016;2022-07-09T09:42:24;31.33;;;29.83;;
42296;SDS011;28985;47.456;19.016;2022-07-09T09:44:54;30.23;;;28.85;;
42296;SDS011;28985;47.456;19.016;2022-07-09T09:47:25;33.90;;;32.45;;
42296;SDS011;28985;47.456;19.016;2022-07-09T09:49:53;36.08;;;34.67;;
42296;SDS011;28985;47.456;19.016;2022-07-09T09:52:23;37.33;;;35.88;;
42296;SDS011;28985;47.456;19.016;2022-07-09T09:54:51;33.78;;;32.38;;
42296;SDS011;28985;47.456;19.016;2022-07-09T09:57:18;34.38;;;32.90;;
42296;SDS011;28985;47.456;19.016;2022-07-09T09:59:50;36.33;;;34.70;;
42296;SDS011;28985;47.456;19.016;2022-07-09T10:02:18;37.22;;;35.83;;
42296;SDS011;28985;47.456;19.016;2022-07-09T10:04:47;38.88;;;37.20;;
42296;SDS011;28985;47.456;19.016;2022-07-09T10:07:14;43.70;;;42.05;;
42296;SDS011;28985;47.456;19.016;2022-07-09T10:09:59;45.13;;;43.40;;
42296;SDS011;28985;47.456;19.016;2022-07-09T10:12:27;50.30;;;48.30;;
42296;SDS011;28985;47.456;19.016;2022-07-09T10:14:56;52.70;;;50.70;;
42296;SDS011;28985;47.456;19.016;2022-07-09T10:17:23;54.78;;;52.58;;
42296;SDS011;28985;47.456;19.016;2022-07-09T10:19:55;53.13;;;51.08;;
42296;SDS011;28985;47.456;19.016;2022-07-09T10:22:37;58.63;;;56.22;;
42296;SDS011;28985;47.456;19.016;2022-07-09T10:25:04;65.32;;;62.72;;
42296;SDS011;28985;47.456;19.016;2022-07-09T10:27:44;65.15;;;62.65;;
42296;SDS011;28985;47.456;19.016;2022-07-09T10:30:33;72.68;;;69.78;;
42296;SDS011;28985;47.456;19.016;2022-07-09T10:35:46;66.88;;;64.18;;
42296;SDS011;28985;47.456;19.016;2022-07-09T10:38:14;69.15;;;66.53;;
42296;SDS011;28985;47.456;19.016;2022-07-09T10:40:43;68.40;;;65.85;;
42296;SDS011;28985;47.456;19.016;2022-07-09T10:43:10;68.38;;;65.82;;
42296;SDS011;28985;47.456;19.016;2022-07-09T10:48:08;77.82;;;74.93;;
42296;SDS011;28985;47.456;19.016;2022-07-09T10:50:37;78.57;;;75.57;;
42296;SDS011;28985;47.456;19.016;2022-07-09T10:53:13;79.55;;;76.45;;
42296;SDS011;28985;47.456;19.016;2022-07-09T10:55:43;83.28;;;79.88;;
42296;SDS011;28985;47.456;19.016;2022-07-09T10:58:19;82.05;;;78.88;;
42296;SDS011;28985;47.456;19.016;2022-07-09T11:00:57;85.75;;;82.30;;
42296;SDS011;28985;47.456;19.016;2022-07-09T11:03:29;82.20;;;79.13;;
42296;SDS011;28985;47.456;19.016;2022-07-09T11:05:57;83.55;;;80.20;;
42296;SDS011;28985;47.456;19.016;2022-07-09T11:08:24;85.70;;;82.40;;
42296;SDS011;28985;47.456;19.016;2022-07-09T11:10:51;82.25;;;79.03;;
42296;SDS011;28985;47.456;19.016;2022-07-09T11:13:22;75.22;;;72.40;;
42296;SDS011;28985;47.456;19.016;2022-07-09T11:15:57;82.75;;;79.60;;
42296;SDS011;28985;47.456;19.016;2022-07-09T11:18:26;71.13;;;68.32;;
42296;SDS011;28985;47.456;19.016;2022-07-09T11:20:53;80.35;;;77.38;;
42296;SDS011;28985;47.456;19.016;2022-07-09T11:23:20;79.32;;;76.18;;
42296;SDS011;28985;47.456;19.016;2022-07-09T11:25:47;75.20;;;72.35;;
42296;SDS011;28985;47.456;19.016;2022-07-09T11:28:24;82.35;;;79.20;;
42296;SDS011;28985;47.456;19.016;2022-07-09T11:30:59;88.90;;;85.40;;
42296;SDS011;28985;47.456;19.016;2022-07-09T11:33:27;89.15;;;85.80;;
42296;SDS011;28985;47.456;19.016;2022-07-09T11:36:14;86.60;;;83.30;;
42296;SDS011;28985;47.456;19.016;2022-07-09T11:38:50;83.93;;;80.53;;
42296;SDS011;28985;47.456;19.016;2022-07-09T11:41:18;72.47;;;69.55;;
42296;SDS011;28985;47.456;19.016;2022-07-09T11:43:49;70.53;;;67.82;;
42296;SDS011;28985;47.456;19.016;2022-07-09T11:46:20;66.50;;;63.90;;
42296;SDS011;28985;47.456;19.016;2022-07-09T11:48:56;77.05;;;73.95;;
42296;SDS011;28985;47.456;19.016;2022-07-09T11:51:41;86.43;;;82.95;;
42296;SDS011;28985;47.456;19.016;2022-07-09T11:54:07;63.97;;;61.30;;
42296;SDS011;28985;47.456;19.016;2022-07-09T11:56:41;68.53;;;65.53;;
42296;SDS011;28985;47.456;19.016;2022-07-09T11:59:14;87.43;;;84.22;;
42296;SDS011;28985;47.456;19.016;2022-07-09T12:01:57;86.60;;;83.25;;
42296;SDS011;28985;47.456;19.016;2022-07-09T12:04:27;75.18;;;72.28;;
42296;SDS011;28985;47.456;19.016;2022-07-09T12:06:55;71.97;;;69.15;;
42296;SDS011;28985;47.456;19.016;2022-07-09T12:09:31;65.88;;;63.17;;
42296;SDS011;28985;47.456;19.016;2022-07-09T12:11:58;67.15;;;64.57;;
42296;SDS011;28985;47.456;19.016;2022-07-09T12:14:26;83.68;;;80.43;;
42296;SDS011;28985;47.456;19.016;2022-07-09T12:16:52;86.15;;;82.85;;
42296;SDS011;28985;47.456;19.016;2022-07-09T12:19:19;73.00;;;70.25;;
42296;SDS011;28985;47.456;19.016;2022-07-09T12:21:46;64.38;;;61.97;;
42296;SDS011;28985;47.456;19.016;2022-07-09T12:24:12;78.00;;;75.13;;
42296;SDS011;28985;47.456;19.016;2022-07-09T12:26:39;81.68;;;78.18;;
42296;SDS011;28985;47.456;19.016;2022-07-09T12:29:26;85.93;;;82.68;;
42296;SDS011;28985;47.456;19.016;2022-07-09T12:31:52;74.60;;;71.70;;
42296;SDS011;28985;47.456;19.016;2022-07-09T12:34:19;71.47;;;68.80;;
42296;SDS011;28985;47.456;19.016;2022-07-09T12:36:46;82.15;;;79.05;;
42296;SDS011;28985;47.456;19.016;2022-07-09T12:39:24;78.20;;;75.10;;
42296;SDS011;28985;47.456;19.016;2022-07-09T12:41:51;71.10;;;68.30;;
42296;SDS011;28985;47.456;19.016;2022-07-09T12:44:17;78.07;;;75.05;;
42296;SDS011;28985;47.456;19.016;2022-07-09T12:46:44;83.20;;;80.07;;
42296;SDS011;28985;47.456;19.016;2022-07-09T12:49:11;85.10;;;81.95;;
42296;SDS011;28985;47.456;19.016;2022-07-09T12:51:37;92.53;;;89.07;;
42296;SDS011;28985;47.456;19.016;2022-07-09T12:54:04;93.30;;;89.90;;
42296;SDS011;28985;47.456;19.016;2022-07-09T12:56:31;103.70;;;99.63;;
42296;SDS011;28985;47.456;19.016;2022-07-09T12:59:17;102.95;;;98.95;;
42296;SDS011;28985;47.456;19.016;2022-07-09T13:01:44;105.43;;;101.43;;
42296;SDS011;28985;47.456;19.016;2022-07-09T13:04:11;105.03;;;101.10;;
42296;SDS011;28985;47.456;19.016;2022-07-09T13:06:38;104.35;;;100.53;;
42296;SDS011;28985;47.456;19.016;2022-07-09T13:09:05;116.97;;;112.68;;
42296;SDS011;28985;47.456;19.016;2022-07-09T13:11:34;108.28;;;104.22;;
42296;SDS011;28985;47.456;19.016;2022-07-09T13:14:03;104.30;;;100.43;;
42296;SDS011;28985;47.456;19.016;2022-07-09T13:16:29;111.75;;;107.65;;
42296;SDS011;28985;47.456;19.016;2022-07-09T13:18:57;115.63;;;111.30;;
42296;SDS011;28985;47.456;19.016;2022-07-09T13:21:23;120.32;;;115.90;;
42296;SDS011;28985;47.456;19.016;2022-07-09T13:23:50;119.35;;;114.90;;
42296;SDS011;28985;47.456;19.016;2022-07-09T13:26:17;108.40;;;104.30;;
42296;SDS011;28985;47.456;19.016;2022-07-09T13:28:43;110.07;;;105.93;;
42296;SDS011;28985;47.456;19.016;2022-07-09T13:31:10;109.72;;;105.53;;
42296;SDS011;28985;47.456;19.016;2022-07-09T13:33:37;118.10;;;113.70;;
42296;SDS011;28985;47.456;19.016;2022-07-09T13:36:04;113.93;;;109.68;;
42296;SDS011;28985;47.456;19.016;2022-07-09T13:38:32;113.68;;;109.55;;
42296;SDS011;28985;47.456;19.016;2022-07-09T13:40:59;128.32;;;123.57;;
42296;SDS011;28985;47.456;19.016;2022-07-09T13:43:26;126.68;;;121.90;;
42296;SDS011;28985;47.456;19.016;2022-07-09T13:46:01;118.07;;;113.57;;
42296;SDS011;28985;47.456;19.016;2022-07-09T13:48:28;112.32;;;108.07;;
42296;SDS011;28985;47.456;19.016;2022-07-09T13:50:54;126.78;;;121.93;;
42296;SDS011;28985;47.456;19.016;2022-07-09T13:53:21;119.93;;;115.47;;
42296;SDS011;28985;47.456;19.016;2022-07-09T13:55:48;111.03;;;106.80;;
42296;SDS011;28985;47.456;19.016;2022-07-09T13:58:14;121.85;;;117.40;;
42296;SDS011;28985;47.456;19.016;2022-07-09T14:00:41;127.13;;;122.47;;
42296;SDS011;28985;47.456;19.016;2022-07-09T14:03:08;128.30;;;123.53;;
42296;SDS011;28985;47.456;19.016;2022-07-09T14:05:35;129.18;;;124.32;;
42296;SDS011;28985;47.456;19.016;2022-07-09T14:08:04;119.47;;;114.97;;
42296;SDS011;28985;47.456;19.016;2022-07-09T14:10:34;113.20;;;108.85;;
42296;SDS011;28985;47.456;19.016;2022-07-09T14:13:01;116.80;;;112.43;;
42296;SDS011;28985;47.456;19.016;2022-07-09T14:15:28;129.45;;;124.68;;
42296;SDS011;28985;47.456;19.016;2022-07-09T14:17:54;114.57;;;110.07;;
42296;SDS011;28985;47.456;19.016;2022-07-09T14:20:21;118.53;;;114.15;;
42296;SDS011;28985;47.456;19.016;2022-07-09T14:22:47;141.65;;;136.38;;